Time;durP1;ratioP1;P1;durP2;ratioP2;P2;SDS_P1;SDS_P2;PMS_P1;PMS_P2;Temp;Humidity;BMP_temperature;BMP_pressure;BME280_temperature;BME280_humidity;BME280_pressure;Samples;Min_cycle;Max_cycle;Signal;HPM_P1;HPM_P2
2023/04/01 00:02:12;;;;;;;0.10;0.10;;;;;;;;;;5005401;28;58187;-66
2023/04/01 00:04:37;;;;;;;0.37;0.37;;;;;;;;;;5005482;28;58618;-65
2023/04/01 00:07:02;;;;;;;0.83;0.30;;;;;;;;;;5005496;28;57423;-66
2023/04/01 00:09:27;;;;;;;0.70;0.30;;;;;;;;;;5004606;28;58060;-66
2023/04/01 00:11:52;;;;;;;0.30;0.30;;;;;;;;;;5005041;28;58746;-66
2023/04/01 00:14:18;;;;;;;0.20;0.20;;;;;;;;;;5004853;28;58293;-64
2023/04/01 00:16:43;;;;;;;0.40;0.30;;;;;;;;;;5004463;28;57890;-66
2023/04/01 00:19:08;;;;;;;0.90;0.80;;;;;;;;;;5004792;28;58109;-66
2023/04/01 00:21:33;;;;;;;0.40;0.40;;;;;;;;;;5004912;28;57947;-67
2023/04/01 00:23:59;;;;;;;0.43;0.43;;;;;;;;;;5004712;28;58164;-67
2023/04/01 00:26:25;;;;;;;0.20;0.20;;;;;;;;;;5005369;28;57966;-66
2023/04/01 00:28:50;;;;;;;0.40;0.40;;;;;;;;;;5002706;28;57876;-67
2023/04/01 00:31:15;;;;;;;0.30;0.30;;;;;;;;;;5004726;28;57804;-66
2023/04/01 00:33:41;;;;;;;0.30;0.30;;;;;;;;;;5005269;28;58197;-67
2023/04/01 00:36:13;;;;;;;0.38;0.38;;;;;;;;;;5003950;28;58641;-66
2023/04/01 00:38:38;;;;;;;0.20;0.20;;;;;;;;;;5005251;28;58238;-66
2023/04/01 00:41:04;;;;;;;0.30;0.30;;;;;;;;;;5004917;28;57855;-66
2023/04/01 00:43:30;;;;;;;0.45;0.40;;;;;;;;;;5003812;28;57629;-66
2023/04/01 00:45:55;;;;;;;0.35;0.30;;;;;;;;;;5005140;28;57678;-65
2023/04/01 00:48:23;;;;;;;0.20;0.20;;;;;;;;;;5003866;28;58354;-66
2023/04/01 00:50:50;;;;;;;0.60;0.60;;;;;;;;;;5004082;28;57552;-65
2023/04/01 00:53:16;;;;;;;0.30;0.30;;;;;;;;;;5003435;28;58110;-66
2023/04/01 00:55:43;;;;;;;0.30;0.30;;;;;;;;;;5003885;28;57995;-67
2023/04/01 00:58:10;;;;;;;0.20;0.20;;;;;;;;;;5005225;28;57809;-67
2023/04/01 01:00:36;;;;;;;0.30;0.30;;;;;;;;;;5005680;28;58810;-67
2023/04/01 01:03:02;;;;;;;0.30;0.30;;;;;;;;;;5005055;28;57790;-67
2023/04/01 01:05:42;;;;;;;0.73;0.50;;;;;;;;;;5006067;28;58353;-67
2023/04/01 01:08:16;;;;;;;0.50;0.50;;;;;;;;;;5003455;28;57715;-66
2023/04/01 01:10:47;;;;;;;0.40;0.40;;;;;;;;;;5004823;28;58370;-66
2023/04/01 01:13:17;;;;;;;0.50;0.50;;;;;;;;;;5005112;28;57917;-67
2023/04/01 01:15:44;;;;;;;0.38;0.38;;;;;;;;;;5005044;28;57864;-66
2023/04/01 01:18:13;;;;;;;0.40;0.40;;;;;;;;;;5005387;28;58036;-66
2023/04/01 01:20:55;;;;;;;0.38;0.38;;;;;;;;;;5004619;28;58342;-67
2023/04/01 01:23:39;;;;;;;0.40;0.40;;;;;;;;;;5004494;28;58228;-67
2023/04/01 01:26:07;;;;;;;0.38;0.38;;;;;;;;;;5005507;28;58155;-67
2023/04/01 01:28:32;;;;;;;0.52;0.52;;;;;;;;;;5003923;28;57611;-67
2023/04/01 01:31:15;;;;;;;0.40;0.40;;;;;;;;;;5005653;28;58131;-67
2023/04/01 01:33:46;;;;;;;0.35;0.30;;;;;;;;;;5004291;28;58210;-67
2023/04/01 01:36:12;;;;;;;0.45;0.45;;;;;;;;;;5006794;28;58562;-66
2023/04/01 01:38:38;;;;;;;0.50;0.50;;;;;;;;;;5009170;28;58123;-66
2023/04/01 01:41:04;;;;;;;0.20;0.20;;;;;;;;;;5007128;28;57758;-66
2023/04/01 01:43:31;;;;;;;2.28;1.40;;;;;;;;;;5008079;28;58532;-67
2023/04/01 01:45:59;;;;;;;0.30;0.30;;;;;;;;;;5007828;28;57482;-66
2023/04/01 01:48:26;;;;;;;0.30;0.30;;;;;;;;;;5007896;28;58058;-67
2023/04/01 01:50:51;;;;;;;0.40;0.40;;;;;;;;;;5007450;28;58215;-67
2023/04/01 01:53:16;;;;;;;0.28;0.28;;;;;;;;;;5008314;28;58113;-67
2023/04/01 01:55:43;;;;;;;0.47;0.47;;;;;;;;;;5007625;28;58188;-67
2023/04/01 01:58:13;;;;;;;0.30;0.30;;;;;;;;;;5007848;28;58521;-67
2023/04/01 02:00:40;;;;;;;0.40;0.40;;;;;;;;;;5005822;28;57904;-66
2023/04/01 02:03:05;;;;;;;0.32;0.32;;;;;;;;;;5006474;28;59620;-66
2023/04/01 02:05:31;;;;;;;0.20;0.20;;;;;;;;;;5008237;28;58084;-67
2023/04/01 02:08:06;;;;;;;0.35;0.35;;;;;;;;;;5007547;28;57690;-67
2023/04/01 02:10:34;;;;;;;0.32;0.32;;;;;;;;;;5007284;28;57981;-67
2023/04/01 02:13:01;;;;;;;0.40;0.30;;;;;;;;;;5009111;28;57836;-66
2023/04/01 02:15:30;;;;;;;0.30;0.30;;;;;;;;;;5008544;28;57943;-67
2023/04/01 02:17:56;;;;;;;0.40;0.40;;;;;;;;;;5008395;28;57783;-67
2023/04/01 02:20:23;;;;;;;0.38;0.38;;;;;;;;;;5007045;28;57855;-67
2023/04/01 02:22:52;;;;;;;0.40;0.40;;;;;;;;;;4989093;28;58165;-67
2023/04/01 02:25:20;;;;;;;0.40;0.40;;;;;;;;;;5008221;28;58114;-66
2023/04/01 02:27:46;;;;;;;0.10;0.10;;;;;;;;;;5006920;28;58026;-67
2023/04/01 02:30:12;;;;;;;1.27;0.50;;;;;;;;;;5007382;28;57684;-66
2023/04/01 02:32:38;;;;;;;0.43;0.40;;;;;;;;;;5008265;28;58663;-64
2023/04/01 02:35:06;;;;;;;0.30;0.30;;;;;;;;;;5007346;28;57766;-66
2023/04/01 02:37:31;;;;;;;0.50;0.50;;;;;;;;;;5006396;28;58007;-66
2023/04/01 02:39:59;;;;;;;0.27;0.27;;;;;;;;;;5008376;28;57815;-67
2023/04/01 02:42:25;;;;;;;0.32;0.32;;;;;;;;;;5006559;28;59796;-67
2023/04/01 02:44:50;;;;;;;0.40;0.40;;;;;;;;;;4990330;28;58380;-68
2023/04/01 02:47:15;;;;;;;0.50;0.50;;;;;;;;;;5007639;28;58032;-66
2023/04/01 02:49:41;;;;;;;0.25;0.25;;;;;;;;;;5007221;28;58430;-66
2023/04/01 02:52:06;;;;;;;0.35;0.35;;;;;;;;;;5007523;28;58137;-67
2023/04/01 02:54:31;;;;;;;0.30;0.30;;;;;;;;;;5008297;28;58126;-67
2023/04/01 02:56:56;;;;;;;0.22;0.22;;;;;;;;;;5007429;28;58232;-67
2023/04/01 02:59:22;;;;;;;0.60;0.47;;;;;;;;;;5007882;28;58205;-67
2023/04/01 03:01:47;;;;;;;0.40;0.40;;;;;;;;;;5007926;28;58888;-67
2023/04/01 03:04:12;;;;;;;0.40;0.40;;;;;;;;;;5007843;28;58417;-67
2023/04/01 03:06:37;;;;;;;0.22;0.22;;;;;;;;;;5007953;28;57830;-67
2023/04/01 03:09:03;;;;;;;0.43;0.40;;;;;;;;;;5006980;28;58219;-66
2023/04/01 03:11:28;;;;;;;0.57;0.43;;;;;;;;;;5007611;28;58079;-67
2023/04/01 03:13:53;;;;;;;0.30;0.30;;;;;;;;;;5007555;28;57532;-67
2023/04/01 03:16:18;;;;;;;0.30;0.30;;;;;;;;;;5006652;28;58391;-68
2023/04/01 03:18:44;;;;;;;0.40;0.40;;;;;;;;;;5007947;28;57964;-67
2023/04/01 03:21:16;;;;;;;0.30;0.30;;;;;;;;;;5005820;28;58548;-67
2023/04/01 03:23:41;;;;;;;0.28;0.28;;;;;;;;;;5006487;28;58067;-67
2023/04/01 03:26:06;;;;;;;0.38;0.38;;;;;;;;;;5007097;28;58205;-67
2023/04/01 03:28:31;;;;;;;0.40;0.40;;;;;;;;;;5006009;28;57846;-67
2023/04/01 03:30:56;;;;;;;0.30;0.30;;;;;;;;;;5007551;28;58145;-66
2023/04/01 03:33:22;;;;;;;0.40;0.40;;;;;;;;;;4989214;28;58942;-67
2023/04/01 03:35:47;;;;;;;0.45;0.45;;;;;;;;;;5006332;28;58190;-66
2023/04/01 03:38:12;;;;;;;0.30;0.30;;;;;;;;;;5007774;28;57781;-67
2023/04/01 03:40:38;;;;;;;0.40;0.30;;;;;;;;;;5006403;28;58006;-66
2023/04/01 03:43:06;;;;;;;0.30;0.30;;;;;;;;;;5021953;28;57899;-66
2023/04/01 03:45:31;;;;;;;0.40;0.40;;;;;;;;;;5007346;28;57857;-68
2023/04/01 03:47:56;;;;;;;0.30;0.30;;;;;;;;;;5005869;28;57903;-68
2023/04/01 03:50:21;;;;;;;0.40;0.40;;;;;;;;;;5007148;28;58003;-67
2023/04/01 03:52:47;;;;;;;0.50;0.50;;;;;;;;;;5007180;28;58112;-68
2023/04/01 03:55:12;;;;;;;0.50;0.50;;;;;;;;;;5005832;28;58257;-66
2023/04/01 03:57:37;;;;;;;0.40;0.40;;;;;;;;;;5004676;28;58158;-67
2023/04/01 04:00:02;;;;;;;0.30;0.30;;;;;;;;;;5005737;28;57856;-68
2023/04/01 04:02:27;;;;;;;0.28;0.28;;;;;;;;;;5005259;28;57749;-67
2023/04/01 04:04:52;;;;;;;0.20;0.20;;;;;;;;;;5006166;28;58302;-65
2023/04/01 04:07:18;;;;;;;0.47;0.47;;;;;;;;;;5003465;28;58629;-67
2023/04/01 04:09:44;;;;;;;0.30;0.30;;;;;;;;;;5005793;28;58029;-65
2023/04/01 04:12:09;;;;;;;0.17;0.17;;;;;;;;;;5003835;28;58273;-67
2023/04/01 04:14:34;;;;;;;0.65;0.45;;;;;;;;;;5005276;28;57957;-67
2023/04/01 04:16:59;;;;;;;0.40;0.40;;;;;;;;;;5003915;28;58630;-68
2023/04/01 04:19:24;;;;;;;0.50;0.50;;;;;;;;;;5004793;28;58160;-68
2023/04/01 04:21:49;;;;;;;0.40;0.40;;;;;;;;;;5005902;28;57538;-67
2023/04/01 04:24:15;;;;;;;0.50;0.50;;;;;;;;;;5004191;28;58243;-67
2023/04/01 04:26:40;;;;;;;0.30;0.30;;;;;;;;;;4985871;28;59313;-65
2023/04/01 04:29:05;;;;;;;0.27;0.27;;;;;;;;;;5004904;28;58125;-67
2023/04/01 04:31:30;;;;;;;0.40;0.40;;;;;;;;;;5006650;28;57875;-68
2023/04/01 04:33:55;;;;;;;0.40;0.40;;;;;;;;;;5004159;28;57898;-68
2023/04/01 04:36:21;;;;;;;0.33;0.33;;;;;;;;;;5004133;28;58080;-67
2023/04/01 04:38:46;;;;;;;0.40;0.40;;;;;;;;;;5003350;28;58165;-68
2023/04/01 04:41:17;;;;;;;0.40;0.40;;;;;;;;;;5003198;28;57793;-68
2023/04/01 04:43:47;;;;;;;0.40;0.40;;;;;;;;;;5005198;28;58095;-64
2023/04/01 04:46:13;;;;;;;0.40;0.40;;;;;;;;;;5001935;28;58092;-68
2023/04/01 04:48:38;;;;;;;0.38;0.38;;;;;;;;;;5005854;28;57886;-68
2023/04/01 04:51:03;;;;;;;0.33;0.33;;;;;;;;;;5004719;28;57828;-67
2023/04/01 04:53:28;;;;;;;0.40;0.40;;;;;;;;;;5004635;28;58640;-68
2023/04/01 04:55:54;;;;;;;0.40;0.40;;;;;;;;;;5003340;28;57915;-67
2023/04/01 04:58:19;;;;;;;0.45;0.30;;;;;;;;;;5004205;28;57928;-68
2023/04/01 05:00:45;;;;;;;0.35;0.35;;;;;;;;;;5001736;28;58232;-68
2023/04/01 05:03:10;;;;;;;0.30;0.30;;;;;;;;;;5004060;28;58133;-68
2023/04/01 05:05:35;;;;;;;0.27;0.27;;;;;;;;;;5003039;28;58261;-67
2023/04/01 05:08:00;;;;;;;0.23;0.23;;;;;;;;;;5005504;28;58178;-68
2023/04/01 05:10:26;;;;;;;0.30;0.30;;;;;;;;;;5006012;28;58378;-68
2023/04/01 05:12:51;;;;;;;0.40;0.40;;;;;;;;;;5008363;28;58013;-68
2023/04/01 05:15:16;;;;;;;0.30;0.30;;;;;;;;;;5008209;28;58159;-68
2023/04/01 05:17:41;;;;;;;0.20;0.20;;;;;;;;;;5005702;28;58225;-67
2023/04/01 05:20:06;;;;;;;0.30;0.30;;;;;;;;;;5007073;28;57868;-68
2023/04/01 05:22:32;;;;;;;0.50;0.50;;;;;;;;;;5007825;28;58116;-66
2023/04/01 05:24:57;;;;;;;0.50;0.30;;;;;;;;;;5007866;28;59111;-67
2023/04/01 05:27:22;;;;;;;0.38;0.38;;;;;;;;;;5007482;28;58165;-66
2023/04/01 05:29:47;;;;;;;0.40;0.40;;;;;;;;;;5008096;28;58031;-68
2023/04/01 05:32:13;;;;;;;0.30;0.30;;;;;;;;;;5007475;28;58068;-67
2023/04/01 05:34:38;;;;;;;0.77;0.40;;;;;;;;;;5008571;28;57990;-68
2023/04/01 05:37:03;;;;;;;0.40;0.40;;;;;;;;;;5006933;28;58421;-67
2023/04/01 05:39:28;;;;;;;0.40;0.40;;;;;;;;;;5007542;28;57957;-67
2023/04/01 05:41:53;;;;;;;0.30;0.30;;;;;;;;;;5007991;28;58203;-68
2023/04/01 05:44:18;;;;;;;0.60;0.60;;;;;;;;;;5007796;28;58333;-68
2023/04/01 05:46:44;;;;;;;0.35;0.30;;;;;;;;;;5007638;28;58133;-65
2023/04/01 05:49:09;;;;;;;1.60;0.30;;;;;;;;;;5005725;28;58809;-66
2023/04/01 05:51:34;;;;;;;0.20;0.20;;;;;;;;;;5005911;28;58567;-68
2023/04/01 05:53:59;;;;;;;0.30;0.30;;;;;;;;;;5006305;28;58246;-67
2023/04/01 05:56:24;;;;;;;0.27;0.27;;;;;;;;;;5006426;28;57872;-68
2023/04/01 05:58:51;;;;;;;0.40;0.40;;;;;;;;;;5007166;28;57832;-68
2023/04/01 06:01:18;;;;;;;0.40;0.40;;;;;;;;;;5008754;28;57828;-68
2023/04/01 06:03:43;;;;;;;0.20;0.20;;;;;;;;;;5009287;28;58402;-65
2023/04/01 06:06:15;;;;;;;0.28;0.28;;;;;;;;;;5008457;28;57890;-68
2023/04/01 06:08:41;;;;;;;0.45;0.30;;;;;;;;;;5006642;28;58087;-67
2023/04/01 06:11:21;;;;;;;0.10;0.10;;;;;;;;;;5006520;28;57825;-68
2023/04/01 06:14:00;;;;;;;0.30;0.30;;;;;;;;;;5007297;28;58122;-67
2023/04/01 06:16:43;;;;;;;0.38;0.20;;;;;;;;;;5005790;28;58502;-68
2023/04/01 06:19:27;;;;;;;0.20;0.20;;;;;;;;;;5006677;28;57844;-68
2023/04/01 06:22:14;;;;;;;0.30;0.30;;;;;;;;;;5005810;28;58645;-67
2023/04/01 06:24:55;;;;;;;0.30;0.30;;;;;;;;;;5005639;28;57747;-65
2023/04/01 06:27:20;;;;;;;0.25;0.25;;;;;;;;;;5006068;28;58934;-67
2023/04/01 06:29:53;;;;;;;0.80;0.22;;;;;;;;;;5006211;28;58342;-67
2023/04/01 06:32:41;;;;;;;0.30;0.30;;;;;;;;;;5007118;28;58438;-68
2023/04/01 06:35:06;;;;;;;;;;;;;;;;;;5008859;28;57848;-67
2023/04/01 06:37:35;;;;;;;0.20;0.20;;;;;;;;;;5006689;28;58628;-68
2023/04/01 06:40:21;;;;;;;0.30;0.30;;;;;;;;;;5004030;28;58324;-67
2023/04/01 06:43:05;;;;;;;0.20;0.20;;;;;;;;;;5006130;28;58013;-68
2023/04/01 06:45:31;;;;;;;0.20;0.20;;;;;;;;;;5006355;28;58212;-68
2023/04/01 06:47:59;;;;;;;0.20;0.20;;;;;;;;;;5005113;28;58298;-67
2023/04/01 06:50:37;;;;;;;0.15;0.10;;;;;;;;;;5005723;28;58519;-68
2023/04/01 06:53:19;;;;;;;0.13;0.13;;;;;;;;;;5005806;28;58172;-69
2023/04/01 06:55:49;;;;;;;0.22;0.22;;;;;;;;;;5005754;28;57958;-69
2023/04/01 06:58:35;;;;;;;0.50;0.20;;;;;;;;;;5006420;28;58186;-68
2023/04/01 07:01:13;;;;;;;0.13;0.13;;;;;;;;;;4993265;28;58014;-67
2023/04/01 07:03:41;;;;;;;0.10;0.10;;;;;;;;;;5007402;28;58917;-68
2023/04/01 07:06:09;;;;;;;0.25;0.25;;;;;;;;;;5007094;28;57845;-69
2023/04/01 07:08:37;;;;;;;0.10;0.10;;;;;;;;;;5004950;28;58033;-68
2023/04/01 07:11:02;;;;;;;;;;;;;;;;;;5004936;28;58134;-68
2023/04/01 07:13:46;;;;;;;0.10;0.10;;;;;;;;;;5005551;28;58170;-68
2023/04/01 07:16:13;;;;;;;0.38;0.15;;;;;;;;;;5005942;28;58231;-67
2023/04/01 07:18:44;;;;;;;0.27;0.13;;;;;;;;;;5006703;28;58002;-68
2023/04/01 07:21:29;;;;;;;0.10;0.10;;;;;;;;;;5005523;28;58548;-68
2023/04/01 07:23:57;;;;;;;0.10;0.10;;;;;;;;;;5006360;28;57796;-65
2023/04/01 07:26:23;;;;;;;0.20;0.20;;;;;;;;;;5006186;28;59096;-68
2023/04/01 07:28:48;;;;;;;0.15;0.13;;;;;;;;;;5006271;28;57725;-69
2023/04/01 07:31:25;;;;;;;0.10;0.10;;;;;;;;;;5007271;28;57823;-68
2023/04/01 07:34:11;;;;;;;0.15;0.15;;;;;;;;;;5019678;28;58261;-66
2023/04/01 07:36:43;;;;;;;1.20;0.20;;;;;;;;;;5005803;28;58580;-68
2023/04/01 07:39:14;;;;;;;0.20;0.20;;;;;;;;;;5007154;28;58331;-68
2023/04/01 07:41:40;;;;;;;0.20;0.20;;;;;;;;;;5004578;28;58545;-66
2023/04/01 07:44:11;;;;;;;0.20;0.20;;;;;;;;;;5004871;28;58089;-67
2023/04/01 07:46:36;;;;;;;0.15;0.15;;;;;;;;;;5007418;28;58237;-68
2023/04/01 07:49:08;;;;;;;1.00;0.13;;;;;;;;;;5006486;28;58692;-68
2023/04/01 07:51:40;;;;;;;0.10;0.10;;;;;;;;;;5007118;28;58091;-68
2023/04/01 07:54:15;;;;;;;0.10;0.10;;;;;;;;;;5005851;28;57770;-69
2023/04/01 07:56:55;;;;;;;0.13;0.13;;;;;;;;;;5004416;28;57858;-67
2023/04/01 07:59:39;;;;;;;0.10;0.10;;;;;;;;;;5002600;28;57952;-68
2023/04/01 08:02:25;;;;;;;0.10;0.10;;;;;;;;;;5003560;28;58290;-68
2023/04/01 08:05:09;;;;;;;0.20;0.20;;;;;;;;;;5004294;28;57926;-68
2023/04/01 08:07:40;;;;;;;1.85;0.20;;;;;;;;;;5005179;28;58216;-68
2023/04/01 08:10:12;;;;;;;0.15;0.15;;;;;;;;;;5004907;28;58325;-68
2023/04/01 08:12:43;;;;;;;0.10;0.10;;;;;;;;;;5005601;28;57655;-68
2023/04/01 08:15:16;;;;;;;1.60;0.15;;;;;;;;;;5006337;28;58130;-68
2023/04/01 08:18:00;;;;;;;0.10;0.10;;;;;;;;;;5005000;28;58668;-67
2023/04/01 08:20:28;;;;;;;2.08;0.13;;;;;;;;;;5006847;28;58178;-68
2023/04/01 08:22:58;;;;;;;0.10;0.10;;;;;;;;;;5005784;28;58297;-68
2023/04/01 08:25:28;;;;;;;0.05;0.05;;;;;;;;;;5005479;28;58342;-68
2023/04/01 08:28:02;;;;;;;0.40;0.40;;;;;;;;;;5004465;28;57982;-69
2023/04/01 08:30:40;;;;;;;0.88;0.88;;;;;;;;;;5005122;28;58194;-68
2023/04/01 08:33:05;;;;;;;1.08;0.88;;;;;;;;;;5004110;28;57794;-68
2023/04/01 08:35:32;;;;;;;1.58;0.88;;;;;;;;;;5022235;28;58599;-67
2023/04/01 08:38:01;;;;;;;1.05;1.00;;;;;;;;;;5004073;28;58396;-70
2023/04/01 08:40:34;;;;;;;1.70;1.60;;;;;;;;;;5007178;28;58071;-70
2023/04/01 08:43:08;;;;;;;2.83;1.35;;;;;;;;;;5006508;28;57833;-67
2023/04/01 08:45:33;;;;;;;1.88;1.73;;;;;;;;;;4987561;28;58668;-67
2023/04/01 08:47:58;;;;;;;2.50;1.80;;;;;;;;;;5006479;28;59078;-68
2023/04/01 08:50:34;;;;;;;4.05;1.95;;;;;;;;;;5005044;28;58174;-67
2023/04/01 08:53:06;;;;;;;2.45;2.25;;;;;;;;;;5006422;28;58032;-68
2023/04/01 08:55:41;;;;;;;2.53;2.33;;;;;;;;;;5005672;28;57928;-67
2023/04/01 08:58:25;;;;;;;4.63;2.72;;;;;;;;;;5003310;28;58838;-68
2023/04/01 09:00:50;;;;;;;4.65;2.67;;;;;;;;;;5005707;28;58195;-68
2023/04/01 09:03:15;;;;;;;3.17;2.88;;;;;;;;;;5005504;28;59015;-67
2023/04/01 09:05:43;;;;;;;3.40;2.73;;;;;;;;;;4987250;28;59404;-66
2023/04/01 09:08:08;;;;;;;;;;;;;;;;;;5007127;28;57807;-68
2023/04/01 09:10:41;;;;;;;5.47;4.07;;;;;;;;;;5004288;28;58166;-70
2023/04/01 09:13:13;;;;;;;6.85;6.18;;;;;;;;;;5003390;28;58014;-68
2023/04/01 09:15:47;;;;;;;8.68;6.45;;;;;;;;;;5004140;28;57715;-69
2023/04/01 09:18:20;;;;;;;7.22;5.45;;;;;;;;;;5004635;28;58758;-68
2023/04/01 09:21:04;;;;;;;8.05;5.90;;;;;;;;;;5005755;28;58206;-66
2023/04/01 09:23:40;;;;;;;6.68;5.32;;;;;;;;;;5006239;28;58253;-67
2023/04/01 09:26:17;;;;;;;6.80;5.40;;;;;;;;;;5003678;28;57980;-69
2023/04/01 09:28:49;;;;;;;5.97;5.37;;;;;;;;;;5003677;28;59198;-68
2023/04/01 09:31:24;;;;;;;6.60;5.82;;;;;;;;;;5000720;28;57693;-67
2023/04/01 09:33:51;;;;;;;7.55;5.40;;;;;;;;;;5004816;28;58001;-68
2023/04/01 09:36:35;;;;;;;9.18;5.82;;;;;;;;;;5006208;28;57937;-68
2023/04/01 09:39:23;;;;;;;11.75;5.30;;;;;;;;;;5002903;28;59033;-66
2023/04/01 09:42:00;;;;;;;6.30;5.70;;;;;;;;;;5006536;28;57810;-65
2023/04/01 09:44:36;;;;;;;12.60;5.40;;;;;;;;;;5003446;28;57860;-64
2023/04/01 09:47:14;;;;;;;9.15;5.93;;;;;;;;;;5004051;28;58828;-66
2023/04/01 09:49:50;;;;;;;5.50;5.03;;;;;;;;;;5004249;28;57838;-67
2023/04/01 09:52:25;;;;;;;8.20;5.78;;;;;;;;;;5003994;28;58059;-67
2023/04/01 09:55:19;;;;;;;5.68;5.18;;;;;;;;;;5005365;28;58286;-66
2023/04/01 09:58:03;;;;;;;5.70;5.20;;;;;;;;;;4986280;28;58008;-66
2023/04/01 10:00:28;;;;;;;8.50;5.38;;;;;;;;;;5006866;28;58268;-66
2023/04/01 10:03:12;;;;;;;7.43;5.35;;;;;;;;;;5008974;28;58173;-62
2023/04/01 10:05:55;;;;;;;9.30;5.40;;;;;;;;;;5008912;28;57838;-67
2023/04/01 10:08:20;;;;;;;6.40;4.82;;;;;;;;;;5007496;28;58892;-66
2023/04/01 10:11:05;;;;;;;5.38;4.90;;;;;;;;;;5008247;28;58294;-65
2023/04/01 10:13:38;;;;;;;5.40;4.82;;;;;;;;;;5008136;28;57917;-66
2023/04/01 10:16:10;;;;;;;5.22;4.72;;;;;;;;;;5007980;28;57896;-65
2023/04/01 10:18:53;;;;;;;7.10;4.57;;;;;;;;;;5008474;28;58562;-65
2023/04/01 10:21:45;;;;;;;5.68;3.90;;;;;;;;;;5008267;28;58404;-65
2023/04/01 10:24:29;;;;;;;5.35;4.22;;;;;;;;;;5009042;28;58721;-65
2023/04/01 10:27:12;;;;;;;10.07;4.60;;;;;;;;;;5008603;28;58095;-65
2023/04/01 10:29:43;;;;;;;5.53;4.65;;;;;;;;;;5007015;28;58181;-67
2023/04/01 10:32:08;;;;;;;4.80;4.35;;;;;;;;;;5009046;28;57938;-66
2023/04/01 10:34:33;;;;;;;6.90;4.97;;;;;;;;;;5008657;28;58256;-66
2023/04/01 10:37:03;;;;;;;5.20;4.27;;;;;;;;;;5005797;28;57746;-65
2023/04/01 10:39:37;;;;;;;6.68;3.95;;;;;;;;;;5007691;28;57586;-66
2023/04/01 10:42:17;;;;;;;7.57;3.33;;;;;;;;;;5007736;28;58529;-66
2023/04/01 10:44:42;;;;;;;5.18;3.92;;;;;;;;;;4990407;28;57927;-63
2023/04/01 10:47:07;;;;;;;4.82;3.28;;;;;;;;;;5008819;28;58089;-64
2023/04/01 10:49:44;;;;;;;5.40;3.47;;;;;;;;;;5006277;28;58074;-63
2023/04/01 10:52:31;;;;;;;4.95;3.00;;;;;;;;;;5007493;28;58272;-63
2023/04/01 10:55:19;;;;;;;9.52;3.15;;;;;;;;;;5007271;28;57946;-64
2023/04/01 10:57:53;;;;;;;3.00;2.70;;;;;;;;;;5005589;28;58238;-63
2023/04/01 11:00:33;;;;;;;3.22;2.92;;;;;;;;;;5006108;28;58484;-62
2023/04/01 11:03:09;;;;;;;4.55;2.88;;;;;;;;;;5005867;28;58281;-64
2023/04/01 11:05:41;;;;;;;12.35;3.10;;;;;;;;;;5006840;28;57685;-64
2023/04/01 11:08:24;;;;;;;3.22;2.85;;;;;;;;;;5006333;28;58256;-64
2023/04/01 11:11:11;;;;;;;2.72;2.38;;;;;;;;;;5005193;28;59072;-64
2023/04/01 11:13:55;;;;;;;3.45;2.75;;;;;;;;;;5006330;28;57948;-64
2023/04/01 11:16:38;;;;;;;3.78;2.70;;;;;;;;;;5006927;28;58584;-64
2023/04/01 11:19:33;;;;;;;4.00;3.17;;;;;;;;;;5004111;28;58070;-64
2023/04/01 11:22:24;;;;;;;5.28;3.03;;;;;;;;;;4997713;28;57998;-63
2023/04/01 11:25:05;;;;;;;4.15;2.40;;;;;;;;;;5007267;28;58171;-64
2023/04/01 11:27:38;;;;;;;2.58;1.88;;;;;;;;;;5004717;28;59474;-63
2023/04/01 11:30:09;;;;;;;4.53;3.05;;;;;;;;;;5008754;28;57587;-64
2023/04/01 11:32:34;;;;;;;1.95;1.75;;;;;;;;;;5005546;28;57911;-64
2023/04/01 11:35:23;;;;;;;2.13;1.93;;;;;;;;;;5008077;28;57881;-64
2023/04/01 11:37:51;;;;;;;1.83;1.58;;;;;;;;;;5007168;28;59006;-64
2023/04/01 11:40:18;;;;;;;;;;;;;;;;;;5008289;28;58567;-64
2023/04/01 11:43:04;;;;;;;2.50;2.00;;;;;;;;;;5007101;28;58158;-64
2023/04/01 11:45:37;;;;;;;1.40;1.30;;;;;;;;;;4994662;28;59314;-63
2023/04/01 11:48:22;;;;;;;1.50;1.40;;;;;;;;;;5004852;28;58507;-64
2023/04/01 11:51:06;;;;;;;1.98;1.77;;;;;;;;;;5006126;28;58356;-64
2023/04/01 11:53:38;;;;;;;1.63;1.52;;;;;;;;;;5004508;28;58913;-64
2023/04/01 11:56:15;;;;;;;2.80;1.30;;;;;;;;;;5007523;28;58130;-64
2023/04/01 11:58:49;;;;;;;1.52;1.42;;;;;;;;;;5006956;28;58857;-62
2023/04/01 12:01:15;;;;;;;1.95;1.55;;;;;;;;;;5006669;28;57958;-64
2023/04/01 12:03:51;;;;;;;3.50;1.97;;;;;;;;;;5006732;28;57792;-64
2023/04/01 12:06:31;;;;;;;1.02;1.00;;;;;;;;;;5006796;28;57856;-64
2023/04/01 12:09:09;;;;;;;1.50;1.40;;;;;;;;;;5006583;28;57894;-63
2023/04/01 12:11:41;;;;;;;2.45;1.55;;;;;;;;;;5007146;28;58116;-64
2023/04/01 12:14:19;;;;;;;1.38;1.17;;;;;;;;;;5006679;28;58267;-64
2023/04/01 12:16:44;;;;;;;1.13;1.02;;;;;;;;;;5007432;28;58212;-64
2023/04/01 12:19:28;;;;;;;3.42;1.50;;;;;;;;;;5005662;28;57822;-64
2023/04/01 12:22:09;;;;;;;1.35;1.25;;;;;;;;;;4987998;28;58657;-64
2023/04/01 12:24:34;;;;;;;1.38;1.08;;;;;;;;;;5008383;28;58334;-64
2023/04/01 12:26:59;;;;;;;3.50;1.77;;;;;;;;;;5007710;28;57849;-63
2023/04/01 12:29:36;;;;;;;1.37;1.27;;;;;;;;;;5005616;28;58648;-63
2023/04/01 12:32:12;;;;;;;1.13;1.02;;;;;;;;;;5006700;28;58070;-63
2023/04/01 12:34:57;;;;;;;1.70;1.00;;;;;;;;;;5006528;28;57833;-64
2023/04/01 12:37:28;;;;;;;1.13;0.85;;;;;;;;;;5004248;28;58484;-64
2023/04/01 12:39:55;;;;;;;0.80;0.80;;;;;;;;;;5006861;28;58014;-63
2023/04/01 12:42:23;;;;;;;0.95;0.95;;;;;;;;;;5005678;28;58808;-63
2023/04/01 12:45:00;;;;;;;0.98;0.80;;;;;;;;;;5006186;28;57993;-63
2023/04/01 12:47:48;;;;;;;1.20;0.97;;;;;;;;;;5004919;28;58145;-64
2023/04/01 12:50:23;;;;;;;1.77;0.93;;;;;;;;;;5004144;28;58109;-61
2023/04/01 12:53:03;;;;;;;1.23;0.80;;;;;;;;;;5004850;28;57927;-64
2023/04/01 12:55:34;;;;;;;0.82;0.73;;;;;;;;;;5019242;28;58325;-63
2023/04/01 12:58:12;;;;;;;0.80;0.80;;;;;;;;;;5005059;28;58313;-63
2023/04/01 13:00:43;;;;;;;0.73;0.73;;;;;;;;;;5005428;28;57868;-63
2023/04/01 13:03:17;;;;;;;0.63;0.60;;;;;;;;;;5004796;28;58010;-63
2023/04/01 13:05:53;;;;;;;0.90;0.90;;;;;;;;;;5004692;28;58238;-66
2023/04/01 13:08:36;;;;;;;0.93;0.82;;;;;;;;;;5005994;28;58024;-65
2023/04/01 13:11:09;;;;;;;0.55;0.55;;;;;;;;;;5003358;28;58446;-66
2023/04/01 13:13:53;;;;;;;0.70;0.70;;;;;;;;;;5006145;28;58291;-64
2023/04/01 13:16:27;;;;;;;0.50;0.50;;;;;;;;;;5005024;28;59283;-66
2023/04/01 13:18:52;;;;;;;1.20;1.02;;;;;;;;;;5006007;28;58159;-65
2023/04/01 13:21:36;;;;;;;0.70;0.70;;;;;;;;;;5006481;28;58384;-65
2023/04/01 13:24:01;;;;;;;0.70;0.70;;;;;;;;;;5004247;28;57742;-65
2023/04/01 13:26:29;;;;;;;0.73;0.73;;;;;;;;;;5005986;28;58002;-65
2023/04/01 13:28:54;;;;;;;;;;;;;;;;;;5004393;28;58157;-65
2023/04/01 13:31:19;;;;;;;0.57;0.55;;;;;;;;;;5006447;28;57820;-64
2023/04/01 13:33:52;;;;;;;0.50;0.50;;;;;;;;;;5009720;28;57694;-64
2023/04/01 13:36:28;;;;;;;0.50;0.50;;;;;;;;;;5008775;28;57968;-65
2023/04/01 13:39:15;;;;;;;0.70;0.70;;;;;;;;;;5006822;28;57934;-65
2023/04/01 13:42:06;;;;;;;0.60;0.55;;;;;;;;;;5007523;28;58334;-65
2023/04/01 13:44:41;;;;;;;0.47;0.47;;;;;;;;;;5009620;28;58390;-65
2023/04/01 13:47:25;;;;;;;1.38;0.50;;;;;;;;;;5008417;28;57626;-64
2023/04/01 13:49:56;;;;;;;0.40;0.40;;;;;;;;;;5009403;28;58555;-64
2023/04/01 13:52:24;;;;;;;0.50;0.50;;;;;;;;;;5009432;28;57929;-65
2023/04/01 13:55:12;;;;;;;0.60;0.60;;;;;;;;;;5009235;28;57819;-65
2023/04/01 13:57:43;;;;;;;0.40;0.40;;;;;;;;;;5007690;28;58643;-65
2023/04/01 14:00:11;;;;;;;0.52;0.50;;;;;;;;;;5006943;28;58481;-64
2023/04/01 14:02:42;;;;;;;0.38;0.38;;;;;;;;;;5008717;28;58337;-64
2023/04/01 14:05:26;;;;;;;0.55;0.55;;;;;;;;;;5008202;28;57972;-63
2023/04/01 14:08:14;;;;;;;0.50;0.50;;;;;;;;;;5007425;28;57970;-63
2023/04/01 14:10:57;;;;;;;0.28;0.25;;;;;;;;;;5008072;28;58275;-66
2023/04/01 14:13:33;;;;;;;0.20;0.20;;;;;;;;;;5006151;28;58623;-66
2023/04/01 14:16:25;;;;;;;0.30;0.30;;;;;;;;;;5005141;28;58163;-65
2023/04/01 14:19:09;;;;;;;0.30;0.30;;;;;;;;;;4998877;28;58005;-66
2023/04/01 14:21:34;;;;;;;1.35;0.30;;;;;;;;;;5008606;28;58574;-66
2023/04/01 14:23:59;;;;;;;0.40;0.40;;;;;;;;;;5008871;28;58201;-66
2023/04/01 14:26:27;;;;;;;0.50;0.50;;;;;;;;;;5008581;28;58003;-66
2023/04/01 14:28:52;;;;;;;;;;;;;;;;;;5006756;28;58537;-65
2023/04/01 14:31:50;;;;;;;0.20;0.20;;;;;;;;;;5007410;28;57857;-66
2023/04/01 14:34:23;;;;;;;0.10;0.10;;;;;;;;;;4994419;28;57863;-65
2023/04/01 14:36:58;;;;;;;0.20;0.20;;;;;;;;;;5008066;28;57755;-67
2023/04/01 14:39:36;;;;;;;0.40;0.30;;;;;;;;;;5008097;28;58291;-67
2023/04/01 14:42:01;;;;;;;;;;;;;;;;;;5008210;28;57768;-66
2023/04/01 14:44:38;;;;;;;0.10;0.10;;;;;;;;;;5008677;28;57616;-66
2023/04/01 14:47:18;;;;;;;0.50;0.50;;;;;;;;;;5008485;28;57771;-67
2023/04/01 14:49:47;;;;;;;0.60;0.32;;;;;;;;;;5005671;28;58136;-66
2023/04/01 14:52:21;;;;;;;0.38;0.32;;;;;;;;;;5008078;28;58010;-66
2023/04/01 14:54:47;;;;;;;0.30;0.30;;;;;;;;;;5007668;28;57885;-67
2023/04/01 14:57:14;;;;;;;0.20;0.20;;;;;;;;;;5007889;28;57941;-66
2023/04/01 14:59:40;;;;;;;0.30;0.30;;;;;;;;;;5006445;28;57867;-67
2023/04/01 15:02:24;;;;;;;0.50;0.50;;;;;;;;;;5007340;28;58196;-65
2023/04/01 15:04:54;;;;;;;2.90;1.23;;;;;;;;;;5008008;28;57862;-67
2023/04/01 15:07:22;;;;;;;2.28;0.57;;;;;;;;;;5008203;28;58100;-68
2023/04/01 15:10:02;;;;;;;4.70;1.20;;;;;;;;;;5008037;28;59379;-66
2023/04/01 15:12:32;;;;;;;3.88;0.60;;;;;;;;;;5007287;28;57950;-68